createdAt,value
2023-02-06T00:01:23.769Z,8.37
2023-02-06T00:03:51.343Z,11.20
2023-02-06T00:06:19.150Z,5.85
2023-02-06T00:08:46.706Z,7.35
2023-02-06T00:11:16.674Z,6.28
2023-02-06T00:13:44.962Z,4.73
2023-02-06T00:16:16.782Z,11.85
2023-02-06T00:18:45.755Z,6.50
2023-02-06T00:21:13.695Z,9.25
2023-02-06T00:23:41.431Z,5.85
2023-02-06T00:26:08.990Z,3.73
2023-02-06T00:28:36.661Z,7.53
2023-02-06T00:31:06.089Z,5.13
2023-02-06T00:33:33.966Z,7.03
2023-02-06T00:36:03.130Z,6.95
2023-02-06T00:38:30.901Z,4.47
2023-02-06T00:40:58.479Z,6.97
2023-02-06T00:43:26.047Z,5.53
2023-02-06T00:45:53.789Z,8.20
2023-02-06T00:48:21.328Z,6.85
2023-02-06T00:50:49.957Z,9.87
2023-02-06T00:53:19.228Z,6.82
2023-02-06T00:55:46.774Z,7.22
2023-02-06T00:58:14.385Z,7.30
2023-02-06T01:00:41.958Z,5.93
2023-02-06T01:03:09.541Z,6.03
2023-02-06T01:05:37.388Z,8.70
2023-02-06T01:08:05.137Z,5.65
2023-02-06T01:10:34.056Z,8.73
2023-02-06T01:13:01.728Z,5.82
2023-02-06T01:15:29.439Z,9.83
2023-02-06T01:17:56.983Z,11.98
2023-02-06T01:20:25.027Z,6.85
2023-02-06T01:22:52.887Z,10.70
2023-02-06T01:25:20.482Z,7.63
2023-02-06T01:27:49.401Z,9.00
2023-02-06T01:30:17.040Z,6.47
2023-02-06T01:32:44.607Z,7.63
2023-02-06T01:35:12.653Z,8.68
2023-02-06T01:37:40.419Z,8.10
2023-02-06T01:40:09.923Z,5.63
2023-02-06T01:42:37.722Z,11.70
2023-02-06T01:45:23.732Z,6.25
2023-02-06T01:47:53.433Z,9.85
2023-02-06T01:50:21.128Z,7.53
2023-02-06T01:52:48.995Z,4.90
2023-02-06T01:55:16.955Z,5.47
2023-02-06T01:57:44.555Z,9.77
2023-02-06T02:00:12.680Z,6.50
2023-02-06T02:02:42.996Z,9.48
2023-02-06T02:05:13.150Z,4.73
2023-02-06T02:07:45.167Z,7.22
2023-02-06T02:10:12.826Z,9.50
2023-02-06T02:12:40.491Z,6.72
2023-02-06T02:15:08.460Z,7.53
2023-02-06T02:17:39.964Z,7.30
2023-02-06T02:20:33.991Z,7.10
2023-02-06T02:23:15.820Z,4.95
2023-02-06T02:26:01.742Z,6.68
2023-02-06T02:28:49.249Z,7.72
2023-02-06T02:31:43.631Z,6.50
2023-02-06T02:34:31.947Z,2.80
2023-02-06T02:37:04.195Z,10.30
2023-02-06T02:39:37.040Z,14.02
2023-02-06T02:42:08.820Z,12.30
2023-02-06T02:44:39.693Z,5.87
2023-02-06T02:47:09.026Z,9.73
2023-02-06T02:49:38.190Z,8.27
2023-02-06T02:52:07.331Z,7.28
2023-02-06T02:54:34.861Z,7.30
2023-02-06T02:57:06.487Z,4.33
2023-02-06T02:59:36.599Z,8.15
2023-02-06T03:02:06.377Z,8.02
2023-02-06T03:04:36.128Z,4.45
2023-02-06T03:07:07.586Z,8.50
2023-02-06T03:09:54.272Z,26.40
2023-02-06T03:12:24.031Z,4.72
2023-02-06T03:14:56.058Z,12.85
2023-02-06T03:17:28.678Z,17.00
2023-02-06T03:19:57.779Z,7.25
2023-02-06T03:22:26.124Z,6.30
2023-02-06T03:24:56.567Z,15.10
2023-02-06T03:27:24.596Z,36.55
2023-02-06T03:29:53.840Z,19.45
2023-02-06T03:32:24.041Z,18.17
2023-02-06T03:34:54.766Z,24.70
2023-02-06T03:37:22.776Z,6.93
2023-02-06T03:39:50.367Z,22.90
2023-02-06T03:42:20.467Z,14.00
2023-02-06T03:44:51.123Z,5.82
2023-02-06T03:47:19.882Z,30.07
2023-02-06T03:49:48.208Z,29.92
2023-02-06T03:52:17.936Z,18.80
2023-02-06T03:54:47.781Z,16.80
2023-02-06T03:57:19.299Z,10.60
2023-02-06T03:59:49.484Z,18.67
2023-02-06T04:02:18.329Z,23.48
2023-02-06T04:04:46.299Z,17.45
2023-02-06T04:07:16.485Z,6.43
2023-02-06T04:09:47.297Z,52.67
2023-02-06T04:12:15.461Z,25.70
2023-02-06T04:14:43.351Z,12.75
2023-02-06T04:17:12.396Z,17.50
2023-02-06T04:19:40.821Z,34.33
2023-02-06T04:22:08.584Z,7.47
2023-02-06T04:24:36.833Z,55.53
2023-02-06T04:27:04.388Z,74.68
2023-02-06T04:29:32.227Z,25.63
2023-02-06T04:32:02.245Z,25.30
2023-02-06T04:34:31.219Z,32.35
2023-02-06T04:36:59.220Z,27.80
2023-02-06T04:39:26.856Z,36.30
2023-02-06T04:41:54.416Z,33.55
2023-02-06T04:44:22.342Z,27.15
2023-02-06T04:46:50.243Z,18.58
2023-02-06T04:49:18.177Z,20.53
2023-02-06T04:51:47.127Z,15.65
2023-02-06T04:54:17.291Z,5.30
2023-02-06T04:56:45.052Z,3.80
2023-02-06T04:59:12.717Z,5.65
2023-02-06T05:01:40.339Z,7.83
2023-02-06T05:04:08.130Z,8.23
2023-02-06T05:06:36.414Z,7.15
2023-02-06T05:09:05.891Z,3.75
2023-02-06T05:11:33.500Z,4.53
2023-02-06T05:14:01.051Z,4.67
2023-02-06T05:16:28.665Z,5.38
2023-02-06T05:18:57.052Z,3.38
2023-02-06T05:21:25.170Z,7.72
2023-02-06T05:23:52.758Z,7.22
2023-02-06T05:26:21.705Z,5.83
2023-02-06T05:28:49.283Z,6.45
2023-02-06T05:31:19.872Z,5.50
2023-02-06T05:33:49.860Z,7.28
2023-02-06T05:36:18.983Z,8.57
2023-02-06T05:38:46.723Z,5.50
2023-02-06T05:41:14.449Z,5.65
2023-02-06T05:43:43.528Z,6.72
2023-02-06T05:46:12.949Z,4.53
2023-02-06T05:48:40.996Z,3.80
2023-02-06T05:51:08.976Z,4.47
2023-02-06T05:53:36.577Z,4.28
2023-02-06T05:56:04.202Z,5.78
2023-02-06T05:58:31.823Z,4.43
2023-02-06T06:01:00.729Z,5.95
2023-02-06T06:03:28.382Z,7.43
2023-02-06T06:05:55.937Z,8.85
2023-02-06T06:08:23.556Z,4.75
2023-02-06T06:10:51.543Z,6.05
2023-02-06T06:13:19.078Z,6.20
2023-02-06T06:15:46.669Z,3.17
2023-02-06T06:18:15.577Z,5.40
2023-02-06T06:20:43.139Z,4.45
2023-02-06T06:23:10.765Z,6.43
2023-02-06T06:25:38.337Z,4.35
2023-02-06T06:28:06.085Z,8.70
2023-02-06T06:30:35.625Z,15.85
2023-02-06T06:33:03.302Z,46.55
2023-02-06T06:35:32.290Z,32.33
2023-02-06T06:37:59.832Z,44.05
2023-02-06T06:40:27.347Z,6.17
2023-02-06T06:42:54.900Z,8.85
2023-02-06T06:45:22.440Z,16.08
2023-02-06T06:47:50.009Z,7.82
2023-02-06T06:50:17.643Z,8.88
2023-02-06T06:52:46.584Z,8.60
2023-02-06T06:55:14.104Z,10.68
2023-02-06T06:57:41.719Z,5.70
2023-02-06T07:00:10.306Z,6.07
2023-02-06T07:02:37.881Z,4.43
2023-02-06T07:05:05.964Z,5.63
2023-02-06T07:07:33.682Z,31.42
2023-02-06T07:10:02.650Z,17.85
2023-02-06T07:12:30.225Z,7.55
2023-02-06T07:14:57.806Z,26.85
2023-02-06T07:17:25.402Z,26.87
2023-02-06T07:19:53.037Z,20.85
2023-02-06T07:22:21.047Z,68.32
2023-02-06T07:24:48.795Z,35.70
2023-02-06T07:27:17.771Z,123.75
2023-02-06T07:29:45.520Z,84.00
2023-02-06T07:32:13.068Z,92.47
2023-02-06T07:34:40.677Z,75.35
2023-02-06T07:37:08.251Z,65.05
2023-02-06T07:39:35.848Z,29.27
2023-02-06T07:42:03.567Z,22.47
2023-02-06T07:44:32.508Z,37.08
2023-02-06T07:47:00.097Z,25.10
2023-02-06T07:49:27.704Z,11.45
2023-02-06T07:51:55.329Z,26.38
2023-02-06T07:54:22.882Z,15.60
2023-02-06T07:56:50.423Z,11.25
2023-02-06T07:59:18.027Z,11.43
2023-02-06T08:01:46.983Z,35.22
2023-02-06T08:04:14.538Z,55.30
2023-02-06T08:06:42.788Z,45.70
2023-02-06T08:09:12.163Z,46.53
2023-02-06T08:11:39.765Z,64.32
2023-02-06T08:14:07.335Z,60.65
2023-02-06T08:16:34.950Z,16.23
2023-02-06T08:19:03.917Z,51.03
2023-02-06T08:21:31.459Z,25.85
2023-02-06T08:24:00.142Z,31.85
2023-02-06T08:26:28.866Z,56.10
2023-02-06T08:28:57.292Z,58.40
2023-02-06T08:31:25.847Z,57.63
2023-02-06T08:33:53.719Z,59.10
2023-02-06T08:36:23.677Z,132.82
2023-02-06T08:38:52.340Z,160.00
2023-02-06T08:41:22.102Z,152.10
2023-02-06T08:43:50.612Z,78.87
2023-02-06T08:46:18.829Z,184.13
2023-02-06T08:48:46.830Z,123.20
2023-02-06T08:51:15.252Z,98.60
2023-02-06T08:53:44.236Z,191.10
2023-02-06T08:56:13.111Z,161.27
2023-02-06T08:58:40.846Z,113.70
2023-02-06T09:01:08.622Z,111.60
2023-02-06T09:03:36.445Z,94.53
2023-02-06T09:06:09.831Z,140.70
2023-02-06T09:08:38.217Z,74.47
2023-02-06T09:11:07.818Z,91.63
2023-02-06T09:13:35.768Z,87.40
2023-02-06T09:16:03.578Z,50.97
2023-02-06T09:18:31.180Z,78.97
2023-02-06T09:21:10.177Z,73.77
2023-02-06T09:23:37.782Z,48.95
2023-02-06T09:26:05.545Z,14.57
2023-02-06T09:28:34.868Z,24.85
2023-02-06T09:31:02.556Z,32.28
2023-02-06T09:33:30.193Z,19.13
2023-02-06T09:36:04.844Z,36.15
2023-02-06T09:38:32.407Z,11.80
2023-02-06T09:41:01.898Z,10.55
2023-02-06T09:43:30.356Z,4.53
2023-02-06T09:46:01.386Z,5.83
2023-02-06T09:48:30.289Z,4.75
2023-02-06T09:51:01.309Z,5.03
2023-02-06T09:53:33.452Z,4.05
2023-02-06T09:56:04.051Z,4.63
2023-02-06T09:58:44.406Z,5.20
2023-02-06T10:01:16.459Z,4.47
2023-02-06T10:03:48.904Z,5.07
2023-02-06T10:06:19.161Z,5.45
2023-02-06T10:08:50.172Z,4.20
2023-02-06T10:11:20.734Z,4.13
2023-02-06T10:13:50.192Z,4.80
2023-02-06T10:16:31.159Z,4.30
2023-02-06T10:19:01.550Z,5.93
2023-02-06T10:21:31.528Z,5.43
2023-02-06T10:24:01.710Z,5.83
2023-02-06T10:26:29.554Z,6.35
2023-02-06T10:28:59.046Z,8.32
2023-02-06T10:31:31.968Z,4.63
2023-02-06T10:34:11.590Z,7.55
2023-02-06T10:36:46.726Z,6.00
2023-02-06T10:39:24.548Z,7.70
2023-02-06T10:41:56.664Z,5.07
2023-02-06T10:44:27.303Z,5.00
2023-02-06T10:46:58.576Z,5.43
2023-02-06T10:49:30.425Z,5.53
2023-02-06T10:51:59.509Z,4.80
2023-02-06T10:54:30.456Z,5.40
2023-02-06T10:56:59.640Z,5.75
2023-02-06T10:59:29.385Z,4.90
2023-02-06T11:02:03.198Z,8.77
2023-02-06T11:04:34.278Z,5.80
2023-02-06T11:07:02.515Z,5.28
2023-02-06T11:09:30.306Z,4.45
2023-02-06T11:12:02.704Z,5.65
2023-02-06T11:14:32.665Z,14.77
2023-02-06T11:17:01.990Z,7.93
2023-02-06T11:19:32.079Z,14.05
2023-02-06T11:22:10.347Z,7.25
2023-02-06T11:24:38.637Z,10.75
2023-02-06T11:27:13.765Z,5.83
2023-02-06T11:29:46.655Z,5.20
2023-02-06T11:32:30.162Z,6.75
2023-02-06T11:34:58.541Z,5.72
2023-02-06T11:37:33.305Z,5.70
2023-02-06T11:40:21.922Z,4.50
2023-02-06T11:42:52.610Z,4.38
2023-02-06T11:45:28.707Z,6.30
2023-02-06T11:47:58.262Z,5.80
2023-02-06T11:50:27.104Z,5.53
2023-02-06T11:52:59.356Z,5.97
2023-02-06T11:55:27.787Z,4.93
2023-02-06T11:58:03.375Z,5.82
2023-02-06T12:00:31.004Z,5.13
2023-02-06T12:03:00.030Z,5.25
2023-02-06T12:05:29.893Z,5.67
2023-02-06T12:08:00.146Z,4.05
2023-02-06T12:10:28.898Z,4.85
2023-02-06T12:12:57.838Z,7.68
2023-02-06T12:15:45.395Z,4.63
2023-02-06T12:18:16.767Z,6.43
2023-02-06T12:20:48.333Z,6.90
2023-02-06T12:23:18.389Z,6.82
2023-02-06T12:26:00.974Z,9.70
2023-02-06T12:28:31.630Z,10.80
2023-02-06T12:31:04.652Z,7.07
2023-02-06T12:33:39.323Z,26.58
2023-02-06T12:36:13.229Z,25.33
2023-02-06T12:38:43.000Z,5.05
2023-02-06T12:41:24.966Z,7.50
2023-02-06T12:43:54.417Z,14.17
2023-02-06T12:46:23.649Z,14.27
2023-02-06T12:48:56.166Z,14.68
2023-02-06T12:51:25.866Z,7.18
2023-02-06T12:53:57.313Z,6.03
2023-02-06T12:56:28.116Z,16.77
2023-02-06T12:58:59.662Z,6.32
2023-02-06T13:01:38.143Z,6.18
2023-02-06T13:04:08.675Z,7.60
2023-02-06T13:06:40.732Z,6.80
2023-02-06T13:09:08.956Z,5.70
2023-02-06T13:11:39.024Z,11.23
2023-02-06T13:14:08.060Z,6.03
2023-02-06T13:16:46.610Z,5.60
2023-02-06T13:19:26.865Z,5.90
2023-02-06T13:21:55.554Z,6.17
2023-02-06T13:24:23.109Z,6.63
2023-02-06T13:27:17.768Z,7.25
2023-02-06T13:29:45.707Z,7.32
2023-02-06T13:32:32.103Z,7.38
2023-02-06T13:35:06.427Z,5.77
2023-02-06T13:37:35.245Z,7.68
2023-02-06T13:40:13.324Z,8.40
2023-02-06T13:42:44.814Z,10.07
2023-02-06T13:45:17.257Z,8.63
2023-02-06T13:48:02.641Z,13.67
2023-02-06T13:50:40.224Z,7.38
2023-02-06T13:53:28.772Z,6.45
2023-02-06T13:56:04.029Z,7.65
2023-02-06T13:58:39.802Z,5.60
2023-02-06T14:01:12.805Z,6.93
2023-02-06T14:03:44.002Z,7.82
2023-02-06T14:06:18.300Z,5.82
2023-02-06T14:08:49.393Z,6.97
2023-02-06T14:11:31.776Z,9.88
2023-02-06T14:14:24.826Z,5.60
2023-02-06T14:16:59.549Z,8.18
2023-02-06T14:19:31.674Z,5.35
2023-02-06T14:22:04.114Z,6.97
2023-02-06T14:24:39.909Z,6.47
2023-02-06T14:27:18.219Z,5.90
2023-02-06T14:29:51.114Z,6.22
2023-02-06T14:32:28.829Z,7.40
2023-02-06T14:35:01.740Z,5.95
2023-02-06T14:37:39.028Z,8.05
2023-02-06T14:40:23.169Z,6.43
2023-02-06T14:42:51.579Z,9.82
2023-02-06T14:45:26.895Z,16.23
2023-02-06T14:47:55.200Z,11.55
2023-02-06T14:50:24.997Z,5.63
2023-02-06T14:52:55.004Z,6.10
2023-02-06T14:55:32.628Z,8.40
2023-02-06T14:58:00.295Z,6.97
2023-02-06T15:00:28.754Z,7.43
2023-02-06T15:03:06.873Z,6.38
2023-02-06T15:05:35.358Z,9.23
2023-02-06T15:08:05.609Z,8.13
2023-02-06T15:10:34.570Z,7.20
2023-02-06T15:13:02.481Z,9.00
2023-02-06T15:15:31.019Z,5.63
2023-02-06T15:18:02.303Z,7.10
2023-02-06T15:20:32.113Z,5.45
2023-02-06T15:23:16.539Z,7.68
2023-02-06T15:25:59.924Z,7.38
2023-02-06T15:28:28.821Z,7.40
2023-02-06T15:30:57.583Z,9.47
2023-02-06T15:33:27.654Z,6.85
2023-02-06T15:35:56.110Z,9.50
2023-02-06T15:38:24.706Z,9.32
2023-02-06T15:40:53.934Z,30.13
2023-02-06T15:43:25.348Z,9.07
2023-02-06T15:45:55.628Z,7.70
2023-02-06T15:48:25.658Z,9.95
2023-02-06T15:50:57.089Z,9.65
2023-02-06T15:53:30.267Z,7.22
2023-02-06T15:55:58.584Z,9.30
2023-02-06T15:58:27.552Z,8.65
2023-02-06T16:00:57.458Z,8.25
2023-02-06T16:03:26.708Z,9.95
2023-02-06T16:05:56.556Z,8.20
2023-02-06T16:08:25.667Z,9.50
2023-02-06T16:10:54.767Z,9.38
2023-02-06T16:13:25.175Z,8.00
2023-02-06T16:16:04.969Z,8.75
2023-02-06T16:18:33.635Z,10.50
2023-02-06T16:21:14.825Z,11.10
2023-02-06T16:23:45.946Z,8.05
2023-02-06T16:26:16.295Z,9.18
2023-02-06T16:28:48.628Z,9.82
2023-02-06T16:31:17.745Z,8.88
2023-02-06T16:33:46.063Z,8.63
2023-02-06T16:36:13.935Z,9.80
2023-02-06T16:38:44.535Z,11.20
2023-02-06T16:41:26.901Z,10.18
2023-02-06T16:43:55.262Z,12.55
2023-02-06T16:46:24.383Z,11.80
2023-02-06T16:48:51.981Z,10.18
2023-02-06T16:51:20.663Z,11.70
2023-02-06T16:53:49.025Z,9.25
2023-02-06T16:56:17.179Z,11.13
2023-02-06T16:58:45.234Z,10.63
2023-02-06T17:01:17.824Z,9.13
2023-02-06T17:03:46.829Z,9.85
2023-02-06T17:06:16.046Z,9.48
2023-02-06T17:08:43.840Z,9.32
2023-02-06T17:11:13.606Z,11.03
2023-02-06T17:13:41.202Z,9.55
2023-02-06T17:16:11.149Z,11.00
2023-02-06T17:18:38.896Z,11.20
2023-02-06T17:21:07.918Z,11.63
2023-02-06T17:23:35.486Z,12.50
2023-02-06T17:26:03.034Z,11.05
2023-02-06T17:28:30.627Z,13.10
2023-02-06T17:30:58.312Z,11.13
2023-02-06T17:33:25.951Z,11.63
2023-02-06T17:35:53.659Z,14.40
2023-02-06T17:38:22.583Z,14.13
2023-02-06T17:40:50.232Z,10.45
2023-02-06T17:43:18.218Z,11.38
2023-02-06T17:45:45.822Z,15.95
2023-02-06T17:48:13.439Z,13.03
2023-02-06T17:50:41.595Z,8.68
2023-02-06T17:53:12.501Z,12.25
2023-02-06T17:55:41.490Z,11.82
2023-02-06T17:58:09.585Z,11.00
2023-02-06T18:00:37.492Z,13.03
2023-02-06T18:03:05.900Z,10.95
2023-02-06T18:05:33.777Z,12.70
2023-02-06T18:08:01.419Z,10.50
2023-02-06T18:10:29.057Z,18.83
2023-02-06T18:12:57.996Z,12.83
2023-02-06T18:15:25.552Z,11.48
2023-02-06T18:17:54.837Z,16.58
2023-02-06T18:20:22.840Z,14.23
2023-02-06T18:22:50.609Z,16.58
2023-02-06T18:25:18.249Z,10.27
2023-02-06T18:27:46.322Z,12.18
2023-02-06T18:30:17.237Z,9.57
2023-02-06T18:32:44.923Z,10.35
2023-02-06T18:35:12.662Z,9.77
2023-02-06T18:37:40.236Z,11.00
2023-02-06T18:40:08.080Z,14.05
2023-02-06T18:42:54.438Z,12.68
2023-02-06T18:45:24.355Z,11.25
2023-02-06T18:47:52.404Z,16.65
2023-02-06T18:50:21.875Z,13.83
2023-02-06T18:52:50.321Z,11.20
2023-02-06T18:55:18.048Z,10.45
2023-02-06T18:57:46.357Z,12.10
2023-02-06T19:00:15.590Z,12.23
2023-02-06T19:02:44.604Z,11.90
2023-02-06T19:05:12.413Z,14.18
2023-02-06T19:07:40.037Z,15.50
2023-02-06T19:10:10.241Z,16.77
2023-02-06T19:12:38.703Z,19.15
2023-02-06T19:15:06.606Z,15.97
2023-02-06T19:17:34.694Z,15.30
2023-02-06T19:20:03.817Z,14.18
2023-02-06T19:22:34.286Z,14.57
2023-02-06T19:25:02.172Z,13.50
2023-02-06T19:27:30.112Z,15.20
2023-02-06T19:29:58.158Z,14.43
2023-02-06T19:32:29.131Z,12.55
2023-02-06T19:34:57.847Z,14.52
2023-02-06T19:37:26.894Z,17.50
2023-02-06T19:39:54.541Z,9.97
2023-02-06T19:42:22.395Z,8.32
2023-02-06T19:44:52.478Z,17.67
2023-02-06T19:47:20.239Z,13.10
2023-02-06T19:49:49.844Z,13.00
2023-02-06T19:52:17.492Z,16.20
2023-02-06T19:54:47.724Z,15.00
2023-02-06T19:57:16.103Z,15.85
2023-02-06T19:59:43.726Z,34.45
2023-02-06T20:02:14.019Z,22.67
2023-02-06T20:04:41.604Z,17.27
2023-02-06T20:07:09.247Z,22.58
2023-02-06T20:09:41.136Z,14.80
2023-02-06T20:12:10.287Z,35.28
2023-02-06T20:14:37.937Z,26.95
2023-02-06T20:17:05.569Z,30.03
2023-02-06T20:19:33.502Z,29.08
2023-02-06T20:22:02.504Z,24.75
2023-02-06T20:24:31.467Z,24.90
2023-02-06T20:27:00.383Z,18.00
2023-02-06T20:29:30.461Z,18.40
2023-02-06T20:31:58.303Z,23.00
2023-02-06T20:34:26.943Z,17.25
2023-02-06T20:36:55.445Z,34.42
2023-02-06T20:39:23.236Z,24.55
2023-02-06T20:41:50.922Z,19.40
2023-02-06T20:44:19.664Z,26.77
2023-02-06T20:46:48.803Z,21.90
2023-02-06T20:49:17.326Z,19.30
2023-02-06T20:51:44.905Z,15.15
2023-02-06T20:54:12.703Z,9.50
2023-02-06T20:56:40.369Z,14.13
2023-02-06T20:59:08.198Z,10.05
2023-02-06T21:01:35.876Z,11.57
2023-02-06T21:04:05.915Z,40.80
2023-02-06T21:06:34.295Z,17.93
2023-02-06T21:09:03.064Z,13.95
2023-02-06T21:11:31.641Z,9.73
2023-02-06T21:14:00.076Z,14.90
2023-02-06T21:16:27.947Z,14.52
2023-02-06T21:18:55.838Z,16.77
2023-02-06T21:21:25.559Z,7.70
2023-02-06T21:23:53.702Z,13.65
2023-02-06T21:26:21.506Z,14.07
2023-02-06T21:28:49.093Z,10.55
2023-02-06T21:31:17.558Z,13.67
2023-02-06T21:33:46.730Z,11.35
2023-02-06T21:36:17.190Z,16.60
2023-02-06T21:38:46.294Z,12.10
2023-02-06T21:41:14.992Z,19.83
2023-02-06T21:43:42.605Z,16.73
2023-02-06T21:46:10.571Z,13.25
2023-02-06T21:48:38.465Z,14.40
2023-02-06T21:51:09.881Z,31.23
2023-02-06T21:53:37.449Z,11.90
2023-02-06T21:56:07.579Z,22.47
2023-02-06T21:58:35.304Z,46.03
2023-02-06T22:01:02.903Z,25.55
2023-02-06T22:03:30.468Z,12.95
2023-02-06T22:06:07.404Z,16.08
2023-02-06T22:08:35.572Z,15.00
2023-02-06T22:11:03.243Z,27.05
2023-02-06T22:13:32.203Z,17.08
2023-02-06T22:15:59.831Z,21.00
2023-02-06T22:18:27.431Z,18.98
2023-02-06T22:21:03.210Z,24.50
2023-02-06T22:23:30.850Z,10.70
2023-02-06T22:25:58.418Z,26.05
2023-02-06T22:28:26.039Z,30.80
2023-02-06T22:30:55.163Z,20.65
2023-02-06T22:33:22.769Z,14.30
2023-02-06T22:35:50.374Z,23.67
2023-02-06T22:38:17.954Z,9.70
2023-02-06T22:40:45.537Z,11.02
2023-02-06T22:43:13.100Z,18.13
2023-02-06T22:45:40.682Z,9.33
2023-02-06T22:48:09.615Z,20.48
2023-02-06T22:50:37.184Z,18.77
2023-02-06T22:53:22.246Z,40.03
2023-02-06T22:56:07.165Z,27.45
2023-02-06T22:58:34.715Z,15.50
2023-02-06T23:01:02.937Z,15.25
2023-02-06T23:03:31.922Z,16.30
2023-02-06T23:06:01.915Z,16.38
2023-02-06T23:08:29.752Z,7.45
2023-02-06T23:10:57.760Z,11.47
2023-02-06T23:13:25.423Z,26.15
2023-02-06T23:15:53.087Z,28.30
2023-02-06T23:18:20.653Z,20.98
2023-02-06T23:20:53.754Z,6.03
2023-02-06T23:23:21.419Z,27.00
2023-02-06T23:25:48.968Z,13.35
2023-02-06T23:28:16.750Z,6.78
2023-02-06T23:30:44.375Z,9.63
2023-02-06T23:33:12.159Z,9.68
2023-02-06T23:35:40.460Z,20.83
2023-02-06T23:38:09.990Z,10.30
2023-02-06T23:40:38.186Z,16.23
2023-02-06T23:43:06.397Z,13.52
2023-02-06T23:45:34.077Z,9.45
2023-02-06T23:48:03.323Z,18.50
2023-02-06T23:50:30.907Z,13.80
2023-02-06T23:52:58.531Z,22.52
2023-02-06T23:55:28.382Z,10.90
2023-02-06T23:57:55.952Z,22.98
